sensor_id;sensor_type;location;lat;lon;timestamp;pressure;altitude;pressure_sealevel;temperature;humidity
35151;BME280;55720;51.972;4.624;2023-01-13T00:01:08;99635.06;;;7.69;100.00
35151;BME280;55720;51.972;4.624;2023-01-13T00:03:34;99632.22;;;7.65;100.00
35151;BME280;55720;51.972;4.624;2023-01-13T00:05:59;99613.66;;;7.71;100.00
35151;BME280;55720;51.972;4.624;2023-01-13T00:08:25;99619.00;;;7.67;100.00
35151;BME280;55720;51.972;4.624;2023-01-13T00:10:50;99619.25;;;7.62;100.00
35151;BME280;55720;51.972;4.624;2023-01-13T00:13:16;99612.53;;;7.72;100.00
35151;BME280;55720;51.972;4.624;2023-01-13T00:15:42;99609.34;;;7.70;100.00
35151;BME280;55720;51.972;4.624;2023-01-13T00:18:07;99602.63;;;7.79;100.00
35151;BME280;55720;51.972;4.624;2023-01-13T00:20:33;99602.94;;;7.90;100.00
35151;BME280;55720;51.972;4.624;2023-01-13T00:22:58;99595.53;;;8.03;100.00
35151;BME280;55720;51.972;4.624;2023-01-13T00:25:24;99591.84;;;8.11;100.00
35151;BME280;55720;51.972;4.624;2023-01-13T00:27:50;99591.59;;;8.16;100.00
35151;BME280;55720;51.972;4.624;2023-01-13T00:30:15;99569.28;;;8.14;100.00
35151;BME280;55720;51.972;4.624;2023-01-13T00:32:41;99562.75;;;8.18;100.00
35151;BME280;55720;51.972;4.624;2023-01-13T00:35:06;99575.63;;;8.30;100.00
35151;BME280;55720;51.972;4.624;2023-01-13T00:37:34;99560.56;;;8.36;100.00
35151;BME280;55720;51.972;4.624;2023-01-13T00:40:00;99553.41;;;8.31;100.00
35151;BME280;55720;51.972;4.624;2023-01-13T00:42:25;99557.97;;;8.27;100.00
35151;BME280;55720;51.972;4.624;2023-01-13T00:45:10;99545.03;;;8.12;100.00
35151;BME280;55720;51.972;4.624;2023-01-13T00:47:35;99549.38;;;8.01;100.00
35151;BME280;55720;51.972;4.624;2023-01-13T00:50:00;99536.63;;;8.05;100.00
35151;BME280;55720;51.972;4.624;2023-01-13T00:52:26;99532.88;;;7.98;100.00
35151;BME280;55720;51.972;4.624;2023-01-13T00:54:51;99526.41;;;7.90;100.00
35151;BME280;55720;51.972;4.624;2023-01-13T00:57:16;99515.72;;;7.85;100.00
35151;BME280;55720;51.972;4.624;2023-01-13T00:59:43;99522.84;;;7.74;100.00
35151;BME280;55720;51.972;4.624;2023-01-13T01:02:09;99507.81;;;7.68;100.00
35151;BME280;55720;51.972;4.624;2023-01-13T01:04:34;99506.78;;;7.72;100.00
35151;BME280;55720;51.972;4.624;2023-01-13T01:07:00;99504.03;;;7.72;100.00
35151;BME280;55720;51.972;4.624;2023-01-13T01:09:25;99510.44;;;7.64;100.00
35151;BME280;55720;51.972;4.624;2023-01-13T01:11:57;99517.25;;;7.70;100.00
35151;BME280;55720;51.972;4.624;2023-01-13T01:14:23;99527.28;;;7.66;100.00
35151;BME280;55720;51.972;4.624;2023-01-13T01:16:48;99536.41;;;7.58;100.00
35151;BME280;55720;51.972;4.624;2023-01-13T01:19:13;99530.81;;;7.55;100.00
35151;BME280;55720;51.972;4.624;2023-01-13T01:21:39;99531.97;;;7.54;100.00
35151;BME280;55720;51.972;4.624;2023-01-13T01:24:04;99525.81;;;7.57;100.00
35151;BME280;55720;51.972;4.624;2023-01-13T01:26:30;99539.47;;;7.57;100.00
35151;BME280;55720;51.972;4.624;2023-01-13T01:28:56;99545.03;;;7.60;100.00
35151;BME280;55720;51.972;4.624;2023-01-13T01:31:24;99537.41;;;7.66;100.00
35151;BME280;55720;51.972;4.624;2023-01-13T01:33:50;99534.91;;;7.61;100.00
35151;BME280;55720;51.972;4.624;2023-01-13T01:36:17;99538.22;;;7.66;100.00
35151;BME280;55720;51.972;4.624;2023-01-13T01:38:43;99526.38;;;7.62;100.00
35151;BME280;55720;51.972;4.624;2023-01-13T01:41:15;99524.69;;;7.58;100.00
35151;BME280;55720;51.972;4.624;2023-01-13T01:43:51;99524.13;;;7.52;100.00
35151;BME280;55720;51.972;4.624;2023-01-13T01:46:27;99529.47;;;7.49;100.00
35151;BME280;55720;51.972;4.624;2023-01-13T01:48:54;99523.00;;;7.41;100.00
35151;BME280;55720;51.972;4.624;2023-01-13T01:51:52;99535.06;;;7.40;100.00
35151;BME280;55720;51.972;4.624;2023-01-13T01:54:26;99533.34;;;7.35;100.00
35151;BME280;55720;51.972;4.624;2023-01-13T01:56:52;99536.50;;;7.50;100.00
35151;BME280;55720;51.972;4.624;2023-01-13T01:59:19;99528.34;;;7.37;100.00
35151;BME280;55720;51.972;4.624;2023-01-13T02:01:44;99531.63;;;7.43;100.00
35151;BME280;55720;51.972;4.624;2023-01-13T02:04:31;99539.94;;;7.47;100.00
35151;BME280;55720;51.972;4.624;2023-01-13T02:06:59;99532.22;;;7.49;100.00
35151;BME280;55720;51.972;4.624;2023-01-13T02:09:25;99522.63;;;7.67;100.00
35151;BME280;55720;51.972;4.624;2023-01-13T02:11:51;99515.78;;;7.73;100.00
35151;BME280;55720;51.972;4.624;2023-01-13T02:14:36;99498.09;;;7.82;100.00
35151;BME280;55720;51.972;4.624;2023-01-13T02:30:41;99480.75;;;7.63;100.00
35151;BME280;55720;51.972;4.624;2023-01-13T02:39:00;99471.97;;;7.57;100.00
35151;BME280;55720;51.972;4.624;2023-01-13T02:41:46;99487.03;;;7.51;100.00
35151;BME280;55720;51.972;4.624;2023-01-13T02:44:40;99486.88;;;7.60;100.00
35151;BME280;55720;51.972;4.624;2023-01-13T02:47:25;99499.66;;;7.56;100.00
35151;BME280;55720;51.972;4.624;2023-01-13T02:49:59;99513.88;;;7.49;100.00
35151;BME280;55720;51.972;4.624;2023-01-13T02:52:35;99517.06;;;7.51;100.00
35151;BME280;55720;51.972;4.624;2023-01-13T02:55:09;99515.03;;;7.48;100.00
35151;BME280;55720;51.972;4.624;2023-01-13T02:57:38;99516.75;;;7.40;100.00
35151;BME280;55720;51.972;4.624;2023-01-13T03:00:06;99508.19;;;7.54;100.00
35151;BME280;55720;51.972;4.624;2023-01-13T03:02:33;99512.03;;;7.65;100.00
35151;BME280;55720;51.972;4.624;2023-01-13T03:04:59;99506.22;;;7.67;100.00
35151;BME280;55720;51.972;4.624;2023-01-13T03:07:54;99511.44;;;7.60;100.00
35151;BME280;55720;51.972;4.624;2023-01-13T03:21:03;99516.38;;;7.54;100.00
35151;BME280;55720;51.972;4.624;2023-01-13T03:23:55;99502.03;;;7.57;100.00
35151;BME280;55720;51.972;4.624;2023-01-13T03:31:32;99502.81;;;7.58;100.00
35151;BME280;55720;51.972;4.624;2023-01-13T03:34:04;99477.22;;;7.50;100.00
35151;BME280;55720;51.972;4.624;2023-01-13T03:36:31;99484.72;;;7.53;100.00
35151;BME280;55720;51.972;4.624;2023-01-13T03:39:06;99483.25;;;7.56;100.00
35151;BME280;55720;51.972;4.624;2023-01-13T03:41:40;99476.44;;;7.50;100.00
35151;BME280;55720;51.972;4.624;2023-01-13T03:47:14;99475.88;;;7.44;100.00
35151;BME280;55720;51.972;4.624;2023-01-13T03:50:02;99472.03;;;7.45;100.00
35151;BME280;55720;51.972;4.624;2023-01-13T03:52:36;99482.94;;;7.45;100.00
35151;BME280;55720;51.972;4.624;2023-01-13T03:55:11;99459.41;;;7.40;100.00
35151;BME280;55720;51.972;4.624;2023-01-13T03:57:58;99473.59;;;7.46;100.00
35151;BME280;55720;51.972;4.624;2023-01-13T04:00:30;99472.47;;;7.47;100.00
35151;BME280;55720;51.972;4.624;2023-01-13T04:03:06;99469.03;;;7.50;100.00
35151;BME280;55720;51.972;4.624;2023-01-13T04:05:38;99466.56;;;7.45;100.00
35151;BME280;55720;51.972;4.624;2023-01-13T04:08:23;99476.31;;;7.46;100.00
35151;BME280;55720;51.972;4.624;2023-01-13T04:10:59;99482.81;;;7.41;100.00
35151;BME280;55720;51.972;4.624;2023-01-13T04:13:29;99483.66;;;7.30;100.00
35151;BME280;55720;51.972;4.624;2023-01-13T04:15:58;99487.94;;;7.31;100.00
35151;BME280;55720;51.972;4.624;2023-01-13T04:18:28;99477.72;;;7.28;100.00
35151;BME280;55720;51.972;4.624;2023-01-13T04:20:57;99496.94;;;7.31;100.00
35151;BME280;55720;51.972;4.624;2023-01-13T04:23:23;99496.03;;;7.27;100.00
35151;BME280;55720;51.972;4.624;2023-01-13T04:25:50;99497.88;;;7.23;100.00
35151;BME280;55720;51.972;4.624;2023-01-13T04:28:16;99498.31;;;7.25;100.00
35151;BME280;55720;51.972;4.624;2023-01-13T04:30:43;99495.59;;;7.37;100.00
35151;BME280;55720;51.972;4.624;2023-01-13T04:33:09;99501.94;;;7.41;100.00
35151;BME280;55720;51.972;4.624;2023-01-13T04:35:35;99504.91;;;7.49;100.00
35151;BME280;55720;51.972;4.624;2023-01-13T04:38:08;99497.84;;;7.48;100.00
35151;BME280;55720;51.972;4.624;2023-01-13T04:40:35;99517.44;;;7.37;100.00
35151;BME280;55720;51.972;4.624;2023-01-13T04:43:00;99519.22;;;7.46;100.00
35151;BME280;55720;51.972;4.624;2023-01-13T04:45:26;99519.09;;;7.54;100.00
35151;BME280;55720;51.972;4.624;2023-01-13T04:47:51;99530.81;;;7.55;100.00
35151;BME280;55720;51.972;4.624;2023-01-13T04:50:17;99515.56;;;7.66;100.00
35151;BME280;55720;51.972;4.624;2023-01-13T04:52:45;99522.38;;;7.72;100.00
35151;BME280;55720;51.972;4.624;2023-01-13T04:55:11;99537.03;;;7.79;100.00
35151;BME280;55720;51.972;4.624;2023-01-13T04:57:36;99530.06;;;7.82;100.00
35151;BME280;55720;51.972;4.624;2023-01-13T05:00:04;99530.34;;;7.77;100.00
35151;BME280;55720;51.972;4.624;2023-01-13T05:02:29;99533.66;;;7.70;100.00
35151;BME280;55720;51.972;4.624;2023-01-13T05:04:55;99540.94;;;7.66;100.00
35151;BME280;55720;51.972;4.624;2023-01-13T05:07:20;99538.09;;;7.63;100.00
35151;BME280;55720;51.972;4.624;2023-01-13T05:09:45;99525.59;;;7.62;100.00
35151;BME280;55720;51.972;4.624;2023-01-13T05:12:11;99529.59;;;7.52;100.00
35151;BME280;55720;51.972;4.624;2023-01-13T05:14:55;99544.72;;;7.50;100.00
35151;BME280;55720;51.972;4.624;2023-01-13T05:17:39;99530.13;;;7.58;100.00
35151;BME280;55720;51.972;4.624;2023-01-13T05:20:06;99541.75;;;7.55;100.00
35151;BME280;55720;51.972;4.624;2023-01-13T05:22:31;99543.78;;;7.46;100.00
35151;BME280;55720;51.972;4.624;2023-01-13T05:25:15;99555.28;;;7.39;100.00
35151;BME280;55720;51.972;4.624;2023-01-13T05:27:47;99559.16;;;7.38;100.00
35151;BME280;55720;51.972;4.624;2023-01-13T05:30:13;99549.84;;;7.39;100.00
35151;BME280;55720;51.972;4.624;2023-01-13T05:32:39;99556.31;;;7.34;100.00
35151;BME280;55720;51.972;4.624;2023-01-13T05:35:05;99538.13;;;7.38;100.00
35151;BME280;55720;51.972;4.624;2023-01-13T05:37:30;99540.28;;;7.45;100.00
35151;BME280;55720;51.972;4.624;2023-01-13T05:39:55;99545.19;;;7.52;100.00
35151;BME280;55720;51.972;4.624;2023-01-13T05:42:39;99539.72;;;7.52;100.00
35151;BME280;55720;51.972;4.624;2023-01-13T05:45:23;99561.34;;;7.45;100.00
35151;BME280;55720;51.972;4.624;2023-01-13T05:47:49;99561.56;;;7.39;100.00
35151;BME280;55720;51.972;4.624;2023-01-13T05:50:15;99576.13;;;7.43;100.00
35151;BME280;55720;51.972;4.624;2023-01-13T05:52:41;99580.34;;;7.41;100.00
35151;BME280;55720;51.972;4.624;2023-01-13T05:55:08;99588.97;;;7.43;100.00
35151;BME280;55720;51.972;4.624;2023-01-13T05:57:33;99594.00;;;7.41;100.00
35151;BME280;55720;51.972;4.624;2023-01-13T05:59:59;99595.91;;;7.53;100.00
35151;BME280;55720;51.972;4.624;2023-01-13T06:02:24;99597.97;;;7.56;100.00
35151;BME280;55720;51.972;4.624;2023-01-13T06:04:51;99597.41;;;7.62;100.00
35151;BME280;55720;51.972;4.624;2023-01-13T06:07:16;99601.25;;;7.61;100.00
35151;BME280;55720;51.972;4.624;2023-01-13T06:09:41;99607.16;;;7.63;100.00
35151;BME280;55720;51.972;4.624;2023-01-13T06:12:10;99605.25;;;7.64;100.00
35151;BME280;55720;51.972;4.624;2023-01-13T06:14:36;99610.16;;;7.70;100.00
35151;BME280;55720;51.972;4.624;2023-01-13T06:17:12;99618.47;;;7.74;100.00
35151;BME280;55720;51.972;4.624;2023-01-13T06:19:38;99625.06;;;7.73;100.00
35151;BME280;55720;51.972;4.624;2023-01-13T06:22:17;99633.94;;;7.70;100.00
35151;BME280;55720;51.972;4.624;2023-01-13T06:24:45;99656.34;;;7.75;100.00
35151;BME280;55720;51.972;4.624;2023-01-13T06:27:12;99654.75;;;7.86;100.00
35151;BME280;55720;51.972;4.624;2023-01-13T06:29:38;99664.56;;;7.87;100.00
35151;BME280;55720;51.972;4.624;2023-01-13T06:32:07;99664.56;;;7.87;100.00
35151;BME280;55720;51.972;4.624;2023-01-13T06:34:36;99669.00;;;7.92;100.00
35151;BME280;55720;51.972;4.624;2023-01-13T06:37:03;99682.19;;;7.90;100.00
35151;BME280;55720;51.972;4.624;2023-01-13T06:39:29;99671.25;;;7.90;100.00
35151;BME280;55720;51.972;4.624;2023-01-13T06:41:56;99670.13;;;7.91;100.00
35151;BME280;55720;51.972;4.624;2023-01-13T06:44:41;99678.06;;;7.96;100.00
35151;BME280;55720;51.972;4.624;2023-01-13T06:47:07;99679.25;;;7.95;100.00
35151;BME280;55720;51.972;4.624;2023-01-13T06:49:32;99669.53;;;7.98;100.00
35151;BME280;55720;51.972;4.624;2023-01-13T06:51:58;99673.63;;;8.04;100.00
35151;BME280;55720;51.972;4.624;2023-01-13T06:54:23;99672.97;;;7.95;100.00
35151;BME280;55720;51.972;4.624;2023-01-13T06:56:49;99672.75;;;7.87;100.00
35151;BME280;55720;51.972;4.624;2023-01-13T06:59:14;99673.56;;;7.88;100.00
35151;BME280;55720;51.972;4.624;2023-01-13T07:01:39;99678.78;;;7.81;100.00
35151;BME280;55720;51.972;4.624;2023-01-13T07:04:05;99678.78;;;7.81;100.00
35151;BME280;55720;51.972;4.624;2023-01-13T07:06:30;99694.13;;;7.85;100.00
35151;BME280;55720;51.972;4.624;2023-01-13T07:08:55;99695.16;;;7.93;100.00
35151;BME280;55720;51.972;4.624;2023-01-13T07:11:21;99697.09;;;7.92;100.00
35151;BME280;55720;51.972;4.624;2023-01-13T07:13:46;99693.59;;;7.92;100.00
35151;BME280;55720;51.972;4.624;2023-01-13T07:16:30;99707.69;;;7.94;100.00
35151;BME280;55720;51.972;4.624;2023-01-13T07:18:55;99700.06;;;8.00;100.00
35151;BME280;55720;51.972;4.624;2023-01-13T07:21:21;99717.25;;;8.00;100.00
35151;BME280;55720;51.972;4.624;2023-01-13T07:23:47;99732.97;;;8.15;100.00
35151;BME280;55720;51.972;4.624;2023-01-13T07:26:13;99759.63;;;8.18;100.00
35151;BME280;55720;51.972;4.624;2023-01-13T07:28:39;99772.97;;;8.20;100.00
35151;BME280;55720;51.972;4.624;2023-01-13T07:31:10;99784.00;;;8.23;100.00
35151;BME280;55720;51.972;4.624;2023-01-13T07:33:36;99793.47;;;8.26;100.00
35151;BME280;55720;51.972;4.624;2023-01-13T07:36:03;99801.34;;;8.27;100.00
35151;BME280;55720;51.972;4.624;2023-01-13T07:38:29;99809.44;;;8.24;100.00
35151;BME280;55720;51.972;4.624;2023-01-13T07:40:55;99815.16;;;8.31;100.00
35151;BME280;55720;51.972;4.624;2023-01-13T07:43:21;99810.50;;;8.31;100.00
35151;BME280;55720;51.972;4.624;2023-01-13T07:46:03;99805.03;;;8.31;100.00
35151;BME280;55720;51.972;4.624;2023-01-13T07:48:33;99810.94;;;8.33;100.00
35151;BME280;55720;51.972;4.624;2023-01-13T07:51:04;99822.34;;;8.35;100.00
35151;BME280;55720;51.972;4.624;2023-01-13T07:53:29;99838.75;;;8.35;100.00
35151;BME280;55720;51.972;4.624;2023-01-13T07:55:56;99823.59;;;8.38;100.00
35151;BME280;55720;51.972;4.624;2023-01-13T07:58:22;99821.78;;;8.42;100.00
35151;BME280;55720;51.972;4.624;2023-01-13T08:00:48;99844.56;;;8.46;100.00
35151;BME280;55720;51.972;4.624;2023-01-13T08:03:13;99845.13;;;8.52;100.00
35151;BME280;55720;51.972;4.624;2023-01-13T08:05:38;99853.31;;;8.52;100.00
35151;BME280;55720;51.972;4.624;2023-01-13T08:08:04;99857.66;;;8.53;100.00
35151;BME280;55720;51.972;4.624;2023-01-13T08:10:29;99852.19;;;8.53;100.00
35151;BME280;55720;51.972;4.624;2023-01-13T08:12:55;99869.06;;;8.55;100.00
35151;BME280;55720;51.972;4.624;2023-01-13T08:15:38;99871.78;;;8.55;100.00
35151;BME280;55720;51.972;4.624;2023-01-13T08:18:04;99886.50;;;8.50;100.00
35151;BME280;55720;51.972;4.624;2023-01-13T08:20:29;99873.16;;;8.49;100.00
35151;BME280;55720;51.972;4.624;2023-01-13T08:22:56;99868.03;;;8.47;100.00
35151;BME280;55720;51.972;4.624;2023-01-13T08:25:22;99893.91;;;8.50;100.00
35151;BME280;55720;51.972;4.624;2023-01-13T08:27:48;99884.78;;;8.46;100.00
35151;BME280;55720;51.972;4.624;2023-01-13T08:30:14;99878.63;;;8.36;100.00
35151;BME280;55720;51.972;4.624;2023-01-13T08:32:42;99868.88;;;8.15;100.00
35151;BME280;55720;51.972;4.624;2023-01-13T08:35:08;99877.97;;;7.95;100.00
35151;BME280;55720;51.972;4.624;2023-01-13T08:37:33;99821.22;;;7.79;100.00
35151;BME280;55720;51.972;4.624;2023-01-13T08:39:59;99809.25;;;7.72;100.00
35151;BME280;55720;51.972;4.624;2023-01-13T08:42:24;99777.22;;;7.60;100.00
35151;BME280;55720;51.972;4.624;2023-01-13T08:44:52;99749.34;;;7.55;100.00
35151;BME280;55720;51.972;4.624;2023-01-13T08:47:17;99730.91;;;7.52;100.00
35151;BME280;55720;51.972;4.624;2023-01-13T08:49:43;99707.53;;;7.42;100.00
35151;BME280;55720;51.972;4.624;2023-01-13T08:52:08;99694.91;;;7.37;100.00
35151;BME280;55720;51.972;4.624;2023-01-13T08:54:37;99672.28;;;7.37;100.00
35151;BME280;55720;51.972;4.624;2023-01-13T08:57:03;99674.66;;;7.38;100.00
35151;BME280;55720;51.972;4.624;2023-01-13T08:59:28;99658.94;;;7.35;100.00
35151;BME280;55720;51.972;4.624;2023-01-13T09:01:54;99646.78;;;7.33;100.00
35151;BME280;55720;51.972;4.624;2023-01-13T09:04:21;99640.06;;;7.30;100.00
35151;BME280;55720;51.972;4.624;2023-01-13T09:06:48;99634.59;;;7.30;100.00
35151;BME280;55720;51.972;4.624;2023-01-13T09:09:13;99628.34;;;7.30;100.00
35151;BME280;55720;51.972;4.624;2023-01-13T09:11:44;99629.59;;;7.32;100.00
35151;BME280;55720;51.972;4.624;2023-01-13T09:14:31;99631.19;;;7.33;100.00
35151;BME280;55720;51.972;4.624;2023-01-13T09:16:57;99634.72;;;7.34;100.00
35151;BME280;55720;51.972;4.624;2023-01-13T09:19:24;99634.38;;;7.35;100.00
35151;BME280;55720;51.972;4.624;2023-01-13T09:21:49;99619.50;;;7.45;100.00
35151;BME280;55720;51.972;4.624;2023-01-13T09:24:17;99642.44;;;7.56;100.00
35151;BME280;55720;51.972;4.624;2023-01-13T09:26:42;99646.00;;;7.69;100.00
35151;BME280;55720;51.972;4.624;2023-01-13T09:29:07;99644.72;;;7.78;100.00
35151;BME280;55720;51.972;4.624;2023-01-13T09:31:33;99646.00;;;7.81;100.00
35151;BME280;55720;51.972;4.624;2023-01-13T09:34:03;99656.69;;;7.86;100.00
35151;BME280;55720;51.972;4.624;2023-01-13T09:36:47;99667.50;;;7.95;100.00
35151;BME280;55720;51.972;4.624;2023-01-13T09:39:13;99678.66;;;8.02;100.00
35151;BME280;55720;51.972;4.624;2023-01-13T09:41:43;99682.63;;;8.04;100.00
35151;BME280;55720;51.972;4.624;2023-01-13T09:47:36;99709.97;;;8.16;100.00
35151;BME280;55720;51.972;4.624;2023-01-13T09:52:41;99755.44;;;8.21;100.00
35151;BME280;55720;51.972;4.624;2023-01-13T09:55:20;99745.03;;;8.26;100.00
35151;BME280;55720;51.972;4.624;2023-01-13T09:57:46;99772.88;;;8.28;100.00
35151;BME280;55720;51.972;4.624;2023-01-13T10:00:14;99778.59;;;8.35;100.00
35151;BME280;55720;51.972;4.624;2023-01-13T10:05:40;99794.19;;;8.35;100.00
35151;BME280;55720;51.972;4.624;2023-01-13T10:08:11;99816.47;;;8.25;100.00
35151;BME280;55720;51.972;4.624;2023-01-13T10:10:58;99813.06;;;8.16;100.00
35151;BME280;55720;51.972;4.624;2023-01-13T10:13:26;99818.75;;;8.11;100.00
35151;BME280;55720;51.972;4.624;2023-01-13T10:18:42;99816.94;;;8.15;100.00
35151;BME280;55720;51.972;4.624;2023-01-13T10:27:33;99856.75;;;8.36;100.00
35151;BME280;55720;51.972;4.624;2023-01-13T10:32:42;99858.69;;;8.48;100.00
35151;BME280;55720;51.972;4.624;2023-01-13T10:35:10;99860.63;;;8.60;100.00
35151;BME280;55720;51.972;4.624;2023-01-13T10:37:36;99864.72;;;8.66;100.00
35151;BME280;55720;51.972;4.624;2023-01-13T10:40:03;99895.53;;;8.75;100.00
35151;BME280;55720;51.972;4.624;2023-01-13T10:42:28;99888.91;;;8.64;100.00
35151;BME280;55720;51.972;4.624;2023-01-13T10:44:56;99918.53;;;8.62;100.00
35151;BME280;55720;51.972;4.624;2023-01-13T10:47:42;99929.03;;;8.60;100.00
35151;BME280;55720;51.972;4.624;2023-01-13T10:52:38;99963.91;;;8.63;100.00
35151;BME280;55720;51.972;4.624;2023-01-13T10:57:50;99968.50;;;8.71;100.00
35151;BME280;55720;51.972;4.624;2023-01-13T11:00:26;99988.56;;;8.75;100.00
35151;BME280;55720;51.972;4.624;2023-01-13T11:05:37;100000.19;;;8.84;100.00
35151;BME280;55720;51.972;4.624;2023-01-13T11:08:03;99991.19;;;8.83;100.00
35151;BME280;55720;51.972;4.624;2023-01-13T11:10:30;100003.16;;;8.91;100.00
35151;BME280;55720;51.972;4.624;2023-01-13T11:15:41;100030.09;;;9.01;100.00
35151;BME280;55720;51.972;4.624;2023-01-13T11:20:44;100050.63;;;8.95;100.00
35151;BME280;55720;51.972;4.624;2023-01-13T11:23:19;100049.25;;;9.01;100.00
35151;BME280;55720;51.972;4.624;2023-01-13T11:25:50;100062.25;;;8.92;100.00
35151;BME280;55720;51.972;4.624;2023-01-13T11:28:38;100064.31;;;8.95;100.00
35151;BME280;55720;51.972;4.624;2023-01-13T11:31:15;100074.03;;;8.93;100.00
35151;BME280;55720;51.972;4.624;2023-01-13T11:33:47;100085.41;;;8.95;100.00
35151;BME280;55720;51.972;4.624;2023-01-13T11:36:29;100087.16;;;9.11;100.00
35151;BME280;55720;51.972;4.624;2023-01-13T11:39:02;100085.91;;;9.21;100.00
35151;BME280;55720;51.972;4.624;2023-01-13T11:41:46;100087.25;;;9.03;100.00
35151;BME280;55720;51.972;4.624;2023-01-13T11:44:53;100098.66;;;9.05;100.00
35151;BME280;55720;51.972;4.624;2023-01-13T11:47:23;100089.19;;;9.02;100.00
35151;BME280;55720;51.972;4.624;2023-01-13T11:49:49;100103.56;;;8.99;100.00
35151;BME280;55720;51.972;4.624;2023-01-13T11:55:52;100114.28;;;8.92;100.00
35151;BME280;55720;51.972;4.624;2023-01-13T12:01:15;100116.38;;;9.07;100.00
35151;BME280;55720;51.972;4.624;2023-01-13T12:03:52;100110.44;;;9.17;100.00
35151;BME280;55720;51.972;4.624;2023-01-13T12:06:37;100110.00;;;9.27;100.00
35151;BME280;55720;51.972;4.624;2023-01-13T12:09:13;100114.47;;;9.32;100.00
35151;BME280;55720;51.972;4.624;2023-01-13T12:17:25;100140.38;;;9.34;100.00
35151;BME280;55720;51.972;4.624;2023-01-13T12:19:54;100148.59;;;9.34;100.00
35151;BME280;55720;51.972;4.624;2023-01-13T12:22:29;100165.03;;;9.34;100.00
35151;BME280;55720;51.972;4.624;2023-01-13T12:25:05;100170.94;;;9.24;100.00
35151;BME280;55720;51.972;4.624;2023-01-13T12:27:44;100163.66;;;9.28;100.00
35151;BME280;55720;51.972;4.624;2023-01-13T12:30:35;100180.03;;;9.16;100.00
35151;BME280;55720;51.972;4.624;2023-01-13T12:33:14;100181.78;;;9.21;100.00
35151;BME280;55720;51.972;4.624;2023-01-13T12:36:08;100195.81;;;9.19;100.00
35151;BME280;55720;51.972;4.624;2023-01-13T12:39:12;100198.22;;;9.21;100.00
35151;BME280;55720;51.972;4.624;2023-01-13T12:41:51;100189.78;;;9.26;100.00
35151;BME280;55720;51.972;4.624;2023-01-13T12:44:36;100197.72;;;9.19;100.00
35151;BME280;55720;51.972;4.624;2023-01-13T12:47:01;100201.28;;;9.19;100.00
35151;BME280;55720;51.972;4.624;2023-01-13T12:49:31;100212.47;;;9.14;100.00
35151;BME280;55720;51.972;4.624;2023-01-13T12:52:03;100189.09;;;9.29;100.00
35151;BME280;55720;51.972;4.624;2023-01-13T12:57:16;100213.53;;;9.22;100.00
35151;BME280;55720;51.972;4.624;2023-01-13T12:59:44;100215.19;;;9.14;100.00
35151;BME280;55720;51.972;4.624;2023-01-13T13:04:47;100243.47;;;9.06;100.00
35151;BME280;55720;51.972;4.624;2023-01-13T13:07:23;100234.31;;;9.02;100.00
35151;BME280;55720;51.972;4.624;2023-01-13T13:15:28;100220.97;;;9.01;100.00
35151;BME280;55720;51.972;4.624;2023-01-13T13:23:25;100240.53;;;9.11;100.00
35151;BME280;55720;51.972;4.624;2023-01-13T13:26:02;100223.53;;;9.18;100.00
35151;BME280;55720;51.972;4.624;2023-01-13T13:28:35;100228.91;;;9.14;100.00
35151;BME280;55720;51.972;4.624;2023-01-13T13:31:35;100222.06;;;9.20;100.00
35151;BME280;55720;51.972;4.624;2023-01-13T13:39:31;100252.78;;;9.26;100.00
35151;BME280;55720;51.972;4.624;2023-01-13T13:42:19;100259.53;;;9.28;100.00
35151;BME280;55720;51.972;4.624;2023-01-13T13:45:21;100277.81;;;9.36;100.00
35151;BME280;55720;51.972;4.624;2023-01-13T13:48:37;100285.69;;;9.38;100.00
35151;BME280;55720;51.972;4.624;2023-01-13T13:51:23;100289.09;;;9.35;100.00
35151;BME280;55720;51.972;4.624;2023-01-13T13:53:49;100294.47;;;9.31;100.00
35151;BME280;55720;51.972;4.624;2023-01-13T13:56:18;100315.38;;;9.36;100.00
35151;BME280;55720;51.972;4.624;2023-01-13T13:58:46;100307.22;;;9.27;100.00
35151;BME280;55720;51.972;4.624;2023-01-13T14:01:24;100324.47;;;9.28;100.00
35151;BME280;55720;51.972;4.624;2023-01-13T14:04:23;100317.50;;;9.30;100.00
35151;BME280;55720;51.972;4.624;2023-01-13T14:06:57;100322.53;;;9.28;100.00
35151;BME280;55720;51.972;4.624;2023-01-13T14:09:27;100335.56;;;9.31;100.00
35151;BME280;55720;51.972;4.624;2023-01-13T14:11:55;100325.28;;;9.28;100.00
35151;BME280;55720;51.972;4.624;2023-01-13T14:14:21;100340.22;;;9.31;100.00
35151;BME280;55720;51.972;4.624;2023-01-13T14:16:47;100334.16;;;9.25;100.00
35151;BME280;55720;51.972;4.624;2023-01-13T14:21:47;100358.69;;;9.22;100.00
35151;BME280;55720;51.972;4.624;2023-01-13T14:24:14;100358.22;;;9.20;100.00
35151;BME280;55720;51.972;4.624;2023-01-13T14:26:40;100355.34;;;9.16;100.00
35151;BME280;55720;51.972;4.624;2023-01-13T14:29:18;100348.25;;;9.15;100.00
35151;BME280;55720;51.972;4.624;2023-01-13T14:31:45;100363.09;;;9.14;100.00
35151;BME280;55720;51.972;4.624;2023-01-13T14:34:11;100360.56;;;9.09;100.00
35151;BME280;55720;51.972;4.624;2023-01-13T14:36:39;100360.28;;;9.02;100.00
35151;BME280;55720;51.972;4.624;2023-01-13T14:41:43;100369.34;;;8.94;100.00
35151;BME280;55720;51.972;4.624;2023-01-13T14:46:50;100371.00;;;8.86;100.00
35151;BME280;55720;51.972;4.624;2023-01-13T14:49:28;100377.66;;;8.85;100.00
35151;BME280;55720;51.972;4.624;2023-01-13T14:52:04;100376.69;;;8.81;100.00
35151;BME280;55720;51.972;4.624;2023-01-13T14:54:50;100359.94;;;8.83;100.00
35151;BME280;55720;51.972;4.624;2023-01-13T14:57:30;100378.81;;;8.76;100.00
35151;BME280;55720;51.972;4.624;2023-01-13T15:10:59;100355.78;;;8.77;100.00
35151;BME280;55720;51.972;4.624;2023-01-13T15:15:56;100357.31;;;8.86;100.00
35151;BME280;55720;51.972;4.624;2023-01-13T15:18:22;100359.06;;;8.91;100.00
35151;BME280;55720;51.972;4.624;2023-01-13T15:20:48;100359.56;;;8.93;100.00
35151;BME280;55720;51.972;4.624;2023-01-13T15:23:15;100374.81;;;8.94;100.00